sensor_id;sensor_type;location;lat;lon;timestamp;temperature;humidity
34837;DHT22;21053;50.848;4.652;2023-11-19T00:00:07;14.70;99.90
34837;DHT22;21053;50.848;4.652;2023-11-19T00:02:41;14.70;99.90
34837;DHT22;21053;50.848;4.652;2023-11-19T00:05:09;14.70;99.90
34837;DHT22;21053;50.848;4.652;2023-11-19T00:07:44;14.80;99.90
34837;DHT22;21053;50.848;4.652;2023-11-19T00:10:17;14.80;99.90
34837;DHT22;21053;50.848;4.652;2023-11-19T00:12:48;14.90;99.90
34837;DHT22;21053;50.848;4.652;2023-11-19T00:15:15;14.90;99.90
34837;DHT22;21053;50.848;4.652;2023-11-19T00:17:46;14.80;99.90
34837;DHT22;21053;50.848;4.652;2023-11-19T00:20:15;14.80;99.90
34837;DHT22;21053;50.848;4.652;2023-11-19T00:22:42;14.80;99.90
34837;DHT22;21053;50.848;4.652;2023-11-19T00:25:11;14.80;99.90
34837;DHT22;21053;50.848;4.652;2023-11-19T00:27:40;14.80;99.90
34837;DHT22;21053;50.848;4.652;2023-11-19T00:30:06;14.90;99.90
34837;DHT22;21053;50.848;4.652;2023-11-19T00:32:37;14.90;99.90
34837;DHT22;21053;50.848;4.652;2023-11-19T00:35:06;14.90;99.90
34837;DHT22;21053;50.848;4.652;2023-11-19T00:37:36;14.90;99.90
34837;DHT22;21053;50.848;4.652;2023-11-19T00:40:04;14.90;99.90
34837;DHT22;21053;50.848;4.652;2023-11-19T00:42:34;14.90;99.90
34837;DHT22;21053;50.848;4.652;2023-11-19T00:45:01;14.90;99.90
34837;DHT22;21053;50.848;4.652;2023-11-19T00:47:30;14.80;99.90
34837;DHT22;21053;50.848;4.652;2023-11-19T00:49:59;14.90;99.90
34837;DHT22;21053;50.848;4.652;2023-11-19T00:52:27;14.80;99.90
34837;DHT22;21053;50.848;4.652;2023-11-19T00:54:56;14.80;99.90
34837;DHT22;21053;50.848;4.652;2023-11-19T00:57:22;14.90;99.90
34837;DHT22;21053;50.848;4.652;2023-11-19T00:59:52;14.80;99.90
34837;DHT22;21053;50.848;4.652;2023-11-19T01:02:21;14.90;99.90
34837;DHT22;21053;50.848;4.652;2023-11-19T01:04:49;14.90;99.90
34837;DHT22;21053;50.848;4.652;2023-11-19T01:07:18;14.80;99.90
34837;DHT22;21053;50.848;4.652;2023-11-19T01:09:45;14.70;99.90
34837;DHT22;21053;50.848;4.652;2023-11-19T01:12:11;14.70;99.90
34837;DHT22;21053;50.848;4.652;2023-11-19T01:14:41;14.70;99.90
34837;DHT22;21053;50.848;4.652;2023-11-19T01:17:07;14.70;99.90
34837;DHT22;21053;50.848;4.652;2023-11-19T01:19:34;14.70;99.90
34837;DHT22;21053;50.848;4.652;2023-11-19T01:22:02;14.80;99.90
34837;DHT22;21053;50.848;4.652;2023-11-19T01:24:28;14.80;99.90
34837;DHT22;21053;50.848;4.652;2023-11-19T01:26:54;14.80;99.90
34837;DHT22;21053;50.848;4.652;2023-11-19T01:29:23;14.90;99.90
34837;DHT22;21053;50.848;4.652;2023-11-19T01:31:51;14.90;99.90
34837;DHT22;21053;50.848;4.652;2023-11-19T01:34:19;14.90;99.90
34837;DHT22;21053;50.848;4.652;2023-11-19T01:36:48;14.80;99.90
34837;DHT22;21053;50.848;4.652;2023-11-19T01:39:15;14.70;99.90
34837;DHT22;21053;50.848;4.652;2023-11-19T01:41:48;14.70;99.90
34837;DHT22;21053;50.848;4.652;2023-11-19T01:44:17;14.80;99.90
34837;DHT22;21053;50.848;4.652;2023-11-19T01:46:46;14.80;99.90
34837;DHT22;21053;50.848;4.652;2023-11-19T01:49:15;14.90;99.90
34837;DHT22;21053;50.848;4.652;2023-11-19T01:51:46;14.90;99.90
34837;DHT22;21053;50.848;4.652;2023-11-19T01:54:16;14.90;99.90
34837;DHT22;21053;50.848;4.652;2023-11-19T01:56:45;14.90;99.90
34837;DHT22;21053;50.848;4.652;2023-11-19T01:59:11;14.80;99.90
34837;DHT22;21053;50.848;4.652;2023-11-19T02:01:40;14.80;99.90
34837;DHT22;21053;50.848;4.652;2023-11-19T02:04:10;14.60;99.90
34837;DHT22;21053;50.848;4.652;2023-11-19T02:06:41;14.60;99.90
34837;DHT22;21053;50.848;4.652;2023-11-19T02:09:08;14.50;99.90
34837;DHT22;21053;50.848;4.652;2023-11-19T02:11:39;14.40;99.90
34837;DHT22;21053;50.848;4.652;2023-11-19T02:14:08;14.40;99.90
34837;DHT22;21053;50.848;4.652;2023-11-19T02:16:37;14.40;99.90
34837;DHT22;21053;50.848;4.652;2023-11-19T02:19:06;14.30;99.90
34837;DHT22;21053;50.848;4.652;2023-11-19T02:21:34;14.30;99.90
34837;DHT22;21053;50.848;4.652;2023-11-19T02:24:08;14.20;99.90
34837;DHT22;21053;50.848;4.652;2023-11-19T02:27:08;14.20;99.90
34837;DHT22;21053;50.848;4.652;2023-11-19T02:29:37;14.10;99.90
34837;DHT22;21053;50.848;4.652;2023-11-19T02:32:06;14.10;99.90
34837;DHT22;21053;50.848;4.652;2023-11-19T02:34:34;14.10;99.90
34837;DHT22;21053;50.848;4.652;2023-11-19T02:37:04;14.10;99.90
34837;DHT22;21053;50.848;4.652;2023-11-19T02:39:32;14.00;99.90
34837;DHT22;21053;50.848;4.652;2023-11-19T02:41:59;13.90;99.90
34837;DHT22;21053;50.848;4.652;2023-11-19T02:44:28;13.90;99.90
34837;DHT22;21053;50.848;4.652;2023-11-19T02:46:58;13.80;99.90
34837;DHT22;21053;50.848;4.652;2023-11-19T02:49:25;13.90;99.90
34837;DHT22;21053;50.848;4.652;2023-11-19T02:51:54;14.00;99.90
34837;DHT22;21053;50.848;4.652;2023-11-19T02:54:22;14.00;99.90
34837;DHT22;21053;50.848;4.652;2023-11-19T02:56:55;13.90;99.90
34837;DHT22;21053;50.848;4.652;2023-11-19T02:59:27;14.00;99.90
34837;DHT22;21053;50.848;4.652;2023-11-19T03:01:57;14.00;99.90
34837;DHT22;21053;50.848;4.652;2023-11-19T03:04:28;14.00;99.90
34837;DHT22;21053;50.848;4.652;2023-11-19T03:07:00;14.10;99.90
34837;DHT22;21053;50.848;4.652;2023-11-19T03:09:25;14.20;99.90
34837;DHT22;21053;50.848;4.652;2023-11-19T03:11:53;14.10;99.90
34837;DHT22;21053;50.848;4.652;2023-11-19T03:14:19;14.10;99.90
34837;DHT22;21053;50.848;4.652;2023-11-19T03:16:49;14.10;99.90
34837;DHT22;21053;50.848;4.652;2023-11-19T03:19:14;14.20;99.90
34837;DHT22;21053;50.848;4.652;2023-11-19T03:21:41;14.10;99.90
34837;DHT22;21053;50.848;4.652;2023-11-19T03:24:13;14.10;99.90
34837;DHT22;21053;50.848;4.652;2023-11-19T03:26:41;14.10;99.90
34837;DHT22;21053;50.848;4.652;2023-11-19T03:29:09;14.00;99.90
34837;DHT22;21053;50.848;4.652;2023-11-19T03:31:35;14.00;99.90
34837;DHT22;21053;50.848;4.652;2023-11-19T03:34:03;14.00;99.90
34837;DHT22;21053;50.848;4.652;2023-11-19T03:36:32;13.90;99.90
34837;DHT22;21053;50.848;4.652;2023-11-19T03:38:59;13.80;99.90
34837;DHT22;21053;50.848;4.652;2023-11-19T03:41:28;13.70;99.90
34837;DHT22;21053;50.848;4.652;2023-11-19T03:43:56;13.60;99.90
34837;DHT22;21053;50.848;4.652;2023-11-19T03:46:22;13.70;99.90
34837;DHT22;21053;50.848;4.652;2023-11-19T03:48:50;13.70;99.90
34837;DHT22;21053;50.848;4.652;2023-11-19T03:51:19;13.60;99.90
34837;DHT22;21053;50.848;4.652;2023-11-19T03:53:48;13.50;99.90
34837;DHT22;21053;50.848;4.652;2023-11-19T03:56:13;13.50;99.90
34837;DHT22;21053;50.848;4.652;2023-11-19T03:58:40;13.60;99.90
34837;DHT22;21053;50.848;4.652;2023-11-19T04:01:11;13.50;99.90
34837;DHT22;21053;50.848;4.652;2023-11-19T04:03:42;13.50;99.90
34837;DHT22;21053;50.848;4.652;2023-11-19T04:06:08;13.50;99.90
34837;DHT22;21053;50.848;4.652;2023-11-19T04:08:36;13.50;99.90
34837;DHT22;21053;50.848;4.652;2023-11-19T04:11:04;13.50;99.90
34837;DHT22;21053;50.848;4.652;2023-11-19T04:13:34;13.50;99.90
34837;DHT22;21053;50.848;4.652;2023-11-19T04:16:00;13.40;99.90
34837;DHT22;21053;50.848;4.652;2023-11-19T04:18:28;13.30;99.90
34837;DHT22;21053;50.848;4.652;2023-11-19T04:20:56;13.40;99.90
34837;DHT22;21053;50.848;4.652;2023-11-19T04:23:25;13.40;99.90
34837;DHT22;21053;50.848;4.652;2023-11-19T04:25:51;13.50;99.90
34837;DHT22;21053;50.848;4.652;2023-11-19T04:28:19;13.50;99.90
34837;DHT22;21053;50.848;4.652;2023-11-19T04:30:46;13.40;99.90
34837;DHT22;21053;50.848;4.652;2023-11-19T04:33:13;13.40;99.90
34837;DHT22;21053;50.848;4.652;2023-11-19T04:35:49;13.40;99.90
34837;DHT22;21053;50.848;4.652;2023-11-19T04:38:16;13.30;99.90
34837;DHT22;21053;50.848;4.652;2023-11-19T04:40:45;13.30;99.90
34837;DHT22;21053;50.848;4.652;2023-11-19T04:43:12;13.20;99.90
34837;DHT22;21053;50.848;4.652;2023-11-19T04:45:38;13.30;99.90
34837;DHT22;21053;50.848;4.652;2023-11-19T04:48:08;13.20;99.90
34837;DHT22;21053;50.848;4.652;2023-11-19T04:50:37;13.20;99.90
34837;DHT22;21053;50.848;4.652;2023-11-19T04:53:02;13.20;99.90
34837;DHT22;21053;50.848;4.652;2023-11-19T04:55:31;13.30;99.90
34837;DHT22;21053;50.848;4.652;2023-11-19T04:58:00;13.30;99.90
34837;DHT22;21053;50.848;4.652;2023-11-19T05:00:25;13.20;99.90
34837;DHT22;21053;50.848;4.652;2023-11-19T05:02:54;13.20;99.90
34837;DHT22;21053;50.848;4.652;2023-11-19T05:05:26;13.30;99.90
34837;DHT22;21053;50.848;4.652;2023-11-19T05:07:55;13.30;99.90
34837;DHT22;21053;50.848;4.652;2023-11-19T05:10:24;13.30;99.90
34837;DHT22;21053;50.848;4.652;2023-11-19T05:12:51;13.40;99.90
34837;DHT22;21053;50.848;4.652;2023-11-19T05:15:19;13.40;99.90
34837;DHT22;21053;50.848;4.652;2023-11-19T05:17:48;13.50;99.90
34837;DHT22;21053;50.848;4.652;2023-11-19T05:20:14;13.50;99.90
34837;DHT22;21053;50.848;4.652;2023-11-19T05:22:44;13.50;99.90
34837;DHT22;21053;50.848;4.652;2023-11-19T05:25:13;13.50;99.90
34837;DHT22;21053;50.848;4.652;2023-11-19T05:27:41;13.40;99.90
34837;DHT22;21053;50.848;4.652;2023-11-19T05:30:07;13.40;99.90
34837;DHT22;21053;50.848;4.652;2023-11-19T05:32:37;13.30;99.90
34837;DHT22;21053;50.848;4.652;2023-11-19T05:35:06;13.20;99.90
34837;DHT22;21053;50.848;4.652;2023-11-19T05:37:35;13.10;99.90
34837;DHT22;21053;50.848;4.652;2023-11-19T05:40:05;13.20;99.90
34837;DHT22;21053;50.848;4.652;2023-11-19T05:42:38;13.20;99.90
34837;DHT22;21053;50.848;4.652;2023-11-19T05:45:04;13.10;99.90
34837;DHT22;21053;50.848;4.652;2023-11-19T05:47:33;13.10;99.90
34837;DHT22;21053;50.848;4.652;2023-11-19T05:49:59;13.00;99.90
34837;DHT22;21053;50.848;4.652;2023-11-19T05:52:24;13.00;99.90
34837;DHT22;21053;50.848;4.652;2023-11-19T05:54:53;13.00;99.90
34837;DHT22;21053;50.848;4.652;2023-11-19T05:57:22;13.10;99.90
34837;DHT22;21053;50.848;4.652;2023-11-19T05:59:53;13.00;99.90
34837;DHT22;21053;50.848;4.652;2023-11-19T06:02:20;13.10;99.90
34837;DHT22;21053;50.848;4.652;2023-11-19T06:04:49;13.20;99.90
34837;DHT22;21053;50.848;4.652;2023-11-19T06:07:17;13.20;99.90
34837;DHT22;21053;50.848;4.652;2023-11-19T06:09:46;13.20;99.90
34837;DHT22;21053;50.848;4.652;2023-11-19T06:12:14;13.10;99.90
34837;DHT22;21053;50.848;4.652;2023-11-19T06:14:42;13.00;99.90
34837;DHT22;21053;50.848;4.652;2023-11-19T06:17:09;13.00;99.90
34837;DHT22;21053;50.848;4.652;2023-11-19T06:19:39;12.90;99.90
34837;DHT22;21053;50.848;4.652;2023-11-19T06:22:08;12.80;99.90
34837;DHT22;21053;50.848;4.652;2023-11-19T06:24:36;12.80;99.90
34837;DHT22;21053;50.848;4.652;2023-11-19T06:27:03;12.90;99.90
34837;DHT22;21053;50.848;4.652;2023-11-19T06:29:31;12.90;99.90
34837;DHT22;21053;50.848;4.652;2023-11-19T06:31:59;12.90;99.90
34837;DHT22;21053;50.848;4.652;2023-11-19T06:34:25;12.80;99.90
34837;DHT22;21053;50.848;4.652;2023-11-19T06:36:54;12.90;99.90
34837;DHT22;21053;50.848;4.652;2023-11-19T06:39:22;12.90;99.90
34837;DHT22;21053;50.848;4.652;2023-11-19T06:41:52;12.80;99.90
34837;DHT22;21053;50.848;4.652;2023-11-19T06:44:17;12.70;99.90
34837;DHT22;21053;50.848;4.652;2023-11-19T06:46:46;12.70;99.90
34837;DHT22;21053;50.848;4.652;2023-11-19T06:49:19;12.60;99.90
34837;DHT22;21053;50.848;4.652;2023-11-19T06:51:45;12.60;99.90
34837;DHT22;21053;50.848;4.652;2023-11-19T06:54:11;12.60;99.90
34837;DHT22;21053;50.848;4.652;2023-11-19T06:56:40;12.50;99.90
34837;DHT22;21053;50.848;4.652;2023-11-19T06:59:10;12.40;99.90
34837;DHT22;21053;50.848;4.652;2023-11-19T07:01:36;12.40;99.90
34837;DHT22;21053;50.848;4.652;2023-11-19T07:04:02;12.50;99.90
34837;DHT22;21053;50.848;4.652;2023-11-19T07:06:38;12.50;99.90
34837;DHT22;21053;50.848;4.652;2023-11-19T07:09:10;12.50;99.90
34837;DHT22;21053;50.848;4.652;2023-11-19T07:11:39;12.60;99.90
34837;DHT22;21053;50.848;4.652;2023-11-19T07:14:05;12.50;99.90
34837;DHT22;21053;50.848;4.652;2023-11-19T07:16:35;12.40;99.90
34837;DHT22;21053;50.848;4.652;2023-11-19T07:19:07;12.50;99.90
34837;DHT22;21053;50.848;4.652;2023-11-19T07:21:33;12.40;99.90
34837;DHT22;21053;50.848;4.652;2023-11-19T07:24:02;12.40;99.90
34837;DHT22;21053;50.848;4.652;2023-11-19T07:26:31;12.40;99.90
34837;DHT22;21053;50.848;4.652;2023-11-19T07:29:00;12.50;99.90
34837;DHT22;21053;50.848;4.652;2023-11-19T07:31:29;12.60;99.90
34837;DHT22;21053;50.848;4.652;2023-11-19T07:33:55;12.60;99.90
34837;DHT22;21053;50.848;4.652;2023-11-19T07:36:23;12.70;99.90
34837;DHT22;21053;50.848;4.652;2023-11-19T07:38:50;12.70;99.90
34837;DHT22;21053;50.848;4.652;2023-11-19T07:41:19;12.70;99.90
34837;DHT22;21053;50.848;4.652;2023-11-19T07:43:47;12.80;99.90
34837;DHT22;21053;50.848;4.652;2023-11-19T07:46:16;12.80;99.90
34837;DHT22;21053;50.848;4.652;2023-11-19T07:48:45;12.70;99.90
34837;DHT22;21053;50.848;4.652;2023-11-19T07:51:14;12.80;99.90
34837;DHT22;21053;50.848;4.652;2023-11-19T07:53:40;12.70;99.90
34837;DHT22;21053;50.848;4.652;2023-11-19T07:56:09;12.80;99.90
34837;DHT22;21053;50.848;4.652;2023-11-19T07:58:36;12.90;99.90
34837;DHT22;21053;50.848;4.652;2023-11-19T08:01:03;12.90;99.90
34837;DHT22;21053;50.848;4.652;2023-11-19T08:03:34;12.90;99.90
34837;DHT22;21053;50.848;4.652;2023-11-19T08:06:03;12.90;99.90
34837;DHT22;21053;50.848;4.652;2023-11-19T08:08:32;12.90;99.90
34837;DHT22;21053;50.848;4.652;2023-11-19T08:11:02;13.10;99.90
34837;DHT22;21053;50.848;4.652;2023-11-19T08:13:31;13.00;99.90
34837;DHT22;21053;50.848;4.652;2023-11-19T08:15:58;13.20;99.90
34837;DHT22;21053;50.848;4.652;2023-11-19T08:18:24;13.30;99.90
34837;DHT22;21053;50.848;4.652;2023-11-19T08:20:51;13.40;99.90
34837;DHT22;21053;50.848;4.652;2023-11-19T08:23:20;13.40;99.90
34837;DHT22;21053;50.848;4.652;2023-11-19T08:25:48;13.40;99.90
34837;DHT22;21053;50.848;4.652;2023-11-19T08:28:15;13.30;99.90
34837;DHT22;21053;50.848;4.652;2023-11-19T08:30:42;13.40;99.90
34837;DHT22;21053;50.848;4.652;2023-11-19T08:33:10;13.50;99.90
34837;DHT22;21053;50.848;4.652;2023-11-19T08:35:38;13.50;99.90
34837;DHT22;21053;50.848;4.652;2023-11-19T08:38:06;13.50;99.90
34837;DHT22;21053;50.848;4.652;2023-11-19T08:40:33;13.40;99.90
34837;DHT22;21053;50.848;4.652;2023-11-19T08:42:59;13.40;99.90
34837;DHT22;21053;50.848;4.652;2023-11-19T08:45:26;13.50;99.90
34837;DHT22;21053;50.848;4.652;2023-11-19T08:47:52;13.60;99.90
34837;DHT22;21053;50.848;4.652;2023-11-19T08:50:18;13.70;99.90
34837;DHT22;21053;50.848;4.652;2023-11-19T08:52:45;13.70;99.90
34837;DHT22;21053;50.848;4.652;2023-11-19T08:55:11;13.70;99.90
34837;DHT22;21053;50.848;4.652;2023-11-19T08:57:41;13.90;99.90
34837;DHT22;21053;50.848;4.652;2023-11-19T09:00:08;14.00;99.90
34837;DHT22;21053;50.848;4.652;2023-11-19T09:02:38;13.90;99.90
34837;DHT22;21053;50.848;4.652;2023-11-19T09:05:04;13.70;99.90
34837;DHT22;21053;50.848;4.652;2023-11-19T09:07:32;13.70;99.90
34837;DHT22;21053;50.848;4.652;2023-11-19T09:09:58;13.60;99.90
34837;DHT22;21053;50.848;4.652;2023-11-19T09:12:24;13.70;99.90
34837;DHT22;21053;50.848;4.652;2023-11-19T09:14:51;13.80;99.90
34837;DHT22;21053;50.848;4.652;2023-11-19T09:17:18;13.80;99.90
34837;DHT22;21053;50.848;4.652;2023-11-19T09:19:44;13.90;99.90
34837;DHT22;21053;50.848;4.652;2023-11-19T09:22:12;14.00;99.90
34837;DHT22;21053;50.848;4.652;2023-11-19T09:24:37;14.00;99.90
34837;DHT22;21053;50.848;4.652;2023-11-19T09:27:04;14.20;99.90
34837;DHT22;21053;50.848;4.652;2023-11-19T09:29:37;14.40;99.90
34837;DHT22;21053;50.848;4.652;2023-11-19T09:32:06;14.30;99.90
34837;DHT22;21053;50.848;4.652;2023-11-19T09:34:32;14.30;99.90
34837;DHT22;21053;50.848;4.652;2023-11-19T09:37:04;14.30;99.90
34837;DHT22;21053;50.848;4.652;2023-11-19T09:39:33;14.30;99.90
34837;DHT22;21053;50.848;4.652;2023-11-19T09:42:00;14.30;99.90
34837;DHT22;21053;50.848;4.652;2023-11-19T09:44:27;14.40;99.90
34837;DHT22;21053;50.848;4.652;2023-11-19T09:46:56;14.50;99.90
34837;DHT22;21053;50.848;4.652;2023-11-19T09:49:27;14.60;99.90
34837;DHT22;21053;50.848;4.652;2023-11-19T09:51:54;14.60;99.90
34837;DHT22;21053;50.848;4.652;2023-11-19T09:54:20;14.60;99.90
34837;DHT22;21053;50.848;4.652;2023-11-19T09:56:48;14.60;99.90
34837;DHT22;21053;50.848;4.652;2023-11-19T09:59:16;14.70;99.90
34837;DHT22;21053;50.848;4.652;2023-11-19T10:01:45;14.70;99.90
34837;DHT22;21053;50.848;4.652;2023-11-19T10:04:15;14.70;99.90
34837;DHT22;21053;50.848;4.652;2023-11-19T10:06:45;14.70;99.90
34837;DHT22;21053;50.848;4.652;2023-11-19T10:09:14;14.80;99.90
34837;DHT22;21053;50.848;4.652;2023-11-19T10:11:43;14.90;99.90
34837;DHT22;21053;50.848;4.652;2023-11-19T10:14:11;15.00;99.90
34837;DHT22;21053;50.848;4.652;2023-11-19T10:16:41;15.20;99.90
34837;DHT22;21053;50.848;4.652;2023-11-19T10:19:20;15.00;99.90
34837;DHT22;21053;50.848;4.652;2023-11-19T10:21:49;15.10;99.90
34837;DHT22;21053;50.848;4.652;2023-11-19T10:24:31;15.20;99.90
34837;DHT22;21053;50.848;4.652;2023-11-19T10:27:12;15.30;99.90
34837;DHT22;21053;50.848;4.652;2023-11-19T10:29:48;15.40;99.90
34837;DHT22;21053;50.848;4.652;2023-11-19T10:32:17;15.40;99.90
34837;DHT22;21053;50.848;4.652;2023-11-19T10:34:43;15.50;99.90
34837;DHT22;21053;50.848;4.652;2023-11-19T10:37:27;15.70;99.90
34837;DHT22;21053;50.848;4.652;2023-11-19T10:39:55;15.80;99.90
34837;DHT22;21053;50.848;4.652;2023-11-19T10:42:25;15.70;99.90
34837;DHT22;21053;50.848;4.652;2023-11-19T10:44:57;15.60;99.90
34837;DHT22;21053;50.848;4.652;2023-11-19T10:47:23;15.70;99.90
34837;DHT22;21053;50.848;4.652;2023-11-19T10:49:49;15.80;99.90
34837;DHT22;21053;50.848;4.652;2023-11-19T10:52:20;16.10;99.90
34837;DHT22;21053;50.848;4.652;2023-11-19T10:54:49;16.60;99.90
34837;DHT22;21053;50.848;4.652;2023-11-19T10:57:20;16.60;99.90
34837;DHT22;21053;50.848;4.652;2023-11-19T10:59:49;16.60;99.90
34837;DHT22;21053;50.848;4.652;2023-11-19T11:02:22;16.40;99.90
34837;DHT22;21053;50.848;4.652;2023-11-19T11:04:50;16.10;99.90
34837;DHT22;21053;50.848;4.652;2023-11-19T11:07:18;15.90;99.90
34837;DHT22;21053;50.848;4.652;2023-11-19T11:09:47;15.70;99.90
34837;DHT22;21053;50.848;4.652;2023-11-19T11:12:17;15.70;99.90
34837;DHT22;21053;50.848;4.652;2023-11-19T11:14:46;16.10;99.90
34837;DHT22;21053;50.848;4.652;2023-11-19T11:17:18;17.00;99.90
34837;DHT22;21053;50.848;4.652;2023-11-19T11:19:48;16.70;99.90
34837;DHT22;21053;50.848;4.652;2023-11-19T11:22:16;16.20;99.90
34837;DHT22;21053;50.848;4.652;2023-11-19T11:30:11;16.60;99.90
34837;DHT22;21053;50.848;4.652;2023-11-19T11:39:36;16.90;99.90
34837;DHT22;21053;50.848;4.652;2023-11-19T11:45:00;16.40;99.90
34837;DHT22;21053;50.848;4.652;2023-11-19T11:58:29;22.20;96.20
34837;DHT22;21053;50.848;4.652;2023-11-19T12:00:59;23.50;95.60
34837;DHT22;21053;50.848;4.652;2023-11-19T12:03:29;23.70;92.70
34837;DHT22;21053;50.848;4.652;2023-11-19T12:05:59;23.60;91.90
34837;DHT22;21053;50.848;4.652;2023-11-19T12:08:27;23.80;90.50
34837;DHT22;21053;50.848;4.652;2023-11-19T12:10:56;23.90;90.70
34837;DHT22;21053;50.848;4.652;2023-11-19T12:13:24;23.30;90.80
34837;DHT22;21053;50.848;4.652;2023-11-19T12:18:28;23.70;91.60
34837;DHT22;21053;50.848;4.652;2023-11-19T12:21:00;23.00;91.10
34837;DHT22;21053;50.848;4.652;2023-11-19T12:23:30;22.20;91.60
34837;DHT22;21053;50.848;4.652;2023-11-19T12:25:59;21.30;93.40
34837;DHT22;21053;50.848;4.652;2023-11-19T12:28:26;20.30;94.60
34837;DHT22;21053;50.848;4.652;2023-11-19T12:31:07;19.20;95.80
34837;DHT22;21053;50.848;4.652;2023-11-19T12:33:35;18.50;98.40
34837;DHT22;21053;50.848;4.652;2023-11-19T12:36:05;17.90;99.10
34837;DHT22;21053;50.848;4.652;2023-11-19T12:38:31;17.30;99.90
34837;DHT22;21053;50.848;4.652;2023-11-19T12:41:09;16.80;99.90
34837;DHT22;21053;50.848;4.652;2023-11-19T12:43:40;16.40;99.90
34837;DHT22;21053;50.848;4.652;2023-11-19T12:46:24;16.10;99.90
34837;DHT22;21053;50.848;4.652;2023-11-19T12:48:52;16.10;99.90
34837;DHT22;21053;50.848;4.652;2023-11-19T12:51:21;15.90;99.90
34837;DHT22;21053;50.848;4.652;2023-11-19T12:53:52;15.70;99.90
34837;DHT22;21053;50.848;4.652;2023-11-19T12:56:26;15.50;99.90
34837;DHT22;21053;50.848;4.652;2023-11-19T12:58:54;15.60;99.90
34837;DHT22;21053;50.848;4.652;2023-11-19T13:01:23;15.80;99.90
34837;DHT22;21053;50.848;4.652;2023-11-19T13:03:55;16.50;99.90
34837;DHT22;21053;50.848;4.652;2023-11-19T13:06:24;18.00;99.90
34837;DHT22;21053;50.848;4.652;2023-11-19T13:08:52;19.30;99.20
34837;DHT22;21053;50.848;4.652;2023-11-19T13:11:35;19.30;99.10
34837;DHT22;21053;50.848;4.652;2023-11-19T13:14:09;18.70;99.60
34837;DHT22;21053;50.848;4.652;2023-11-19T13:16:38;18.80;99.70
34837;DHT22;21053;50.848;4.652;2023-11-19T13:19:04;18.70;99.90
34837;DHT22;21053;50.848;4.652;2023-11-19T13:21:31;18.60;99.90
34837;DHT22;21053;50.848;4.652;2023-11-19T13:23:57;18.00;99.90
34837;DHT22;21053;50.848;4.652;2023-11-19T13:26:26;17.20;99.90
34837;DHT22;21053;50.848;4.652;2023-11-19T13:28:53;16.80;99.90
34837;DHT22;21053;50.848;4.652;2023-11-19T13:31:18;16.50;99.90
34837;DHT22;21053;50.848;4.652;2023-11-19T13:33:44;16.20;99.90
34837;DHT22;21053;50.848;4.652;2023-11-19T13:36:12;15.90;99.90
34837;DHT22;21053;50.848;4.652;2023-11-19T13:38:40;15.70;99.90
34837;DHT22;21053;50.848;4.652;2023-11-19T13:41:09;15.80;99.90
34837;DHT22;21053;50.848;4.652;2023-11-19T13:43:39;15.90;99.90
34837;DHT22;21053;50.848;4.652;2023-11-19T13:46:05;15.80;99.90
34837;DHT22;21053;50.848;4.652;2023-11-19T13:48:31;15.80;99.90
34837;DHT22;21053;50.848;4.652;2023-11-19T13:50:57;15.80;99.90
34837;DHT22;21053;50.848;4.652;2023-11-19T13:53:26;15.70;99.90
34837;DHT22;21053;50.848;4.652;2023-11-19T13:55:54;15.50;99.90
34837;DHT22;21053;50.848;4.652;2023-11-19T13:58:21;15.40;99.90
34837;DHT22;21053;50.848;4.652;2023-11-19T14:00:46;15.20;99.90
34837;DHT22;21053;50.848;4.652;2023-11-19T14:03:15;15.20;99.90
34837;DHT22;21053;50.848;4.652;2023-11-19T14:05:42;15.00;99.90
34837;DHT22;21053;50.848;4.652;2023-11-19T14:08:09;15.00;99.90
34837;DHT22;21053;50.848;4.652;2023-11-19T14:10:39;15.10;99.90
34837;DHT22;21053;50.848;4.652;2023-11-19T14:13:09;15.00;99.90
34837;DHT22;21053;50.848;4.652;2023-11-19T14:15:37;15.00;99.90
34837;DHT22;21053;50.848;4.652;2023-11-19T14:18:05;14.90;99.90
34837;DHT22;21053;50.848;4.652;2023-11-19T14:20:33;14.90;99.90
34837;DHT22;21053;50.848;4.652;2023-11-19T14:23:00;14.80;99.90
34837;DHT22;21053;50.848;4.652;2023-11-19T14:25:29;14.80;99.90
34837;DHT22;21053;50.848;4.652;2023-11-19T14:29:34;14.90;99.90
34837;DHT22;21053;50.848;4.652;2023-11-19T14:32:03;14.80;99.90
34837;DHT22;21053;50.848;4.652;2023-11-19T14:34:35;14.80;99.90
34837;DHT22;21053;50.848;4.652;2023-11-19T14:37:04;14.70;99.90
34837;DHT22;21053;50.848;4.652;2023-11-19T14:39:30;14.80;99.90
34837;DHT22;21053;50.848;4.652;2023-11-19T14:41:58;14.80;99.90
34837;DHT22;21053;50.848;4.652;2023-11-19T14:44:27;14.80;99.90
34837;DHT22;21053;50.848;4.652;2023-11-19T14:46:52;14.70;99.90
34837;DHT22;21053;50.848;4.652;2023-11-19T14:49:20;14.50;99.90
34837;DHT22;21053;50.848;4.652;2023-11-19T14:51:50;14.50;99.90
34837;DHT22;21053;50.848;4.652;2023-11-19T14:54:16;14.40;99.90
34837;DHT22;21053;50.848;4.652;2023-11-19T14:56:53;14.40;99.90
34837;DHT22;21053;50.848;4.652;2023-11-19T14:59:21;14.30;99.90
34837;DHT22;21053;50.848;4.652;2023-11-19T15:01:48;14.20;99.90
34837;DHT22;21053;50.848;4.652;2023-11-19T15:04:14;14.10;99.90
34837;DHT22;21053;50.848;4.652;2023-11-19T15:06:44;14.20;99.90
34837;DHT22;21053;50.848;4.652;2023-11-19T15:09:10;14.20;99.90
34837;DHT22;21053;50.848;4.652;2023-11-19T15:11:44;14.20;99.90
34837;DHT22;21053;50.848;4.652;2023-11-19T15:14:13;14.30;99.90
34837;DHT22;21053;50.848;4.652;2023-11-19T15:16:50;14.30;99.90
34837;DHT22;21053;50.848;4.652;2023-11-19T15:19:18;14.30;99.90
34837;DHT22;21053;50.848;4.652;2023-11-19T15:21:45;14.20;99.90
34837;DHT22;21053;50.848;4.652;2023-11-19T15:24:11;14.20;99.90
34837;DHT22;21053;50.848;4.652;2023-11-19T15:26:38;14.10;99.90
34837;DHT22;21053;50.848;4.652;2023-11-19T15:29:05;14.00;99.90
34837;DHT22;21053;50.848;4.652;2023-11-19T15:31:32;14.00;99.90
34837;DHT22;21053;50.848;4.652;2023-11-19T15:33:58;14.10;99.90
34837;DHT22;21053;50.848;4.652;2023-11-19T15:36:25;14.10;99.90
34837;DHT22;21053;50.848;4.652;2023-11-19T15:38:54;14.10;99.90
34837;DHT22;21053;50.848;4.652;2023-11-19T15:41:23;14.10;99.90
34837;DHT22;21053;50.848;4.652;2023-11-19T15:43:48;14.10;99.90
34837;DHT22;21053;50.848;4.652;2023-11-19T15:46:14;14.10;99.90
34837;DHT22;21053;50.848;4.652;2023-11-19T15:48:42;14.20;99.90
34837;DHT22;21053;50.848;4.652;2023-11-19T15:51:10;14.30;99.90
34837;DHT22;21053;50.848;4.652;2023-11-19T15:53:39;14.20;99.90
34837;DHT22;21053;50.848;4.652;2023-11-19T15:56:04;14.20;99.90
34837;DHT22;21053;50.848;4.652;2023-11-19T15:58:32;14.20;99.90
34837;DHT22;21053;50.848;4.652;2023-11-19T16:01:01;14.20;99.90
34837;DHT22;21053;50.848;4.652;2023-11-19T16:03:28;14.30;99.90
34837;DHT22;21053;50.848;4.652;2023-11-19T16:05:58;14.30;99.90
34837;DHT22;21053;50.848;4.652;2023-11-19T16:08:24;14.40;99.90